Time;durP1;ratioP1;P1;durP2;ratioP2;P2;SDS_P1;SDS_P2;PMS_P1;PMS_P2;Temp;Humidity;BMP_temperature;BMP_pressure;BME280_temperature;BME280_humidity;BME280_pressure;Samples;Min_cycle;Max_cycle;Signal;HPM_P1;HPM_P2
2022/11/11 00:00:23;;;;;;;17.77;6.32;;;12.00;99.90;;;;;;5105485;27;20699;-75
2022/11/11 00:02:49;;;;;;;19.30;6.50;;;12.00;99.90;;;;;;5104588;27;20035;-74
2022/11/11 00:05:15;;;;;;;18.60;6.97;;;12.00;99.90;;;;;;5130327;27;20108;-75
2022/11/11 00:07:42;;;;;;;14.77;6.43;;;12.00;99.90;;;;;;5107314;27;20134;-74
2022/11/11 00:10:09;;;;;;;21.02;7.53;;;12.00;99.90;;;;;;5118291;27;20051;-74
2022/11/11 00:12:35;;;;;;;18.10;7.25;;;11.90;99.90;;;;;;5118344;27;20047;-74
2022/11/11 00:15:01;;;;;;;16.15;7.20;;;11.90;99.90;;;;;;5120282;27;20087;-75
2022/11/11 00:25:40;;;;;;;22.27;7.80;;;11.90;99.90;;;;;;5111806;27;20050;-74
2022/11/11 00:28:06;;;;;;;18.75;7.63;;;11.90;99.90;;;;;;5124639;27;20069;-74
2022/11/11 00:30:32;;;;;;;14.15;7.43;;;11.90;99.90;;;;;;5115212;27;20496;-74
2022/11/11 00:32:57;;;;;;;20.67;8.15;;;11.90;99.90;;;;;;5109280;27;20658;-74
2022/11/11 00:38:09;;;;;;;19.52;8.20;;;11.80;99.90;;;;;;5122779;27;20066;-74
2022/11/11 00:40:35;;;;;;;17.77;7.72;;;11.80;99.90;;;;;;5117904;27;20088;-75
2022/11/11 00:43:01;;;;;;;19.98;7.70;;;11.80;99.90;;;;;;5121571;27;20049;-73
2022/11/11 00:45:27;;;;;;;17.48;7.05;;;11.80;99.90;;;;;;5139552;27;20031;-74
2022/11/11 00:53:31;;;;;;;15.80;7.65;;;11.80;99.90;;;;;;5116814;27;20051;-74
2022/11/11 00:55:57;;;;;;;18.25;7.95;;;11.80;99.90;;;;;;5121770;27;20097;-73
2022/11/11 00:58:23;;;;;;;17.63;7.90;;;11.80;99.90;;;;;;5101330;27;20045;-74
2022/11/11 01:00:52;;;;;;;17.23;7.97;;;11.80;99.90;;;;;;5122476;27;20023;-74
2022/11/11 01:03:19;;;;;;;18.05;7.30;;;11.80;99.90;;;;;;5116895;27;20038;-73
2022/11/11 01:05:44;;;;;;;20.45;7.90;;;11.80;99.90;;;;;;5103082;27;20074;-74
2022/11/11 01:08:10;;;;;;;19.58;8.18;;;12.10;99.90;;;;;;5123507;27;20531;-74
2022/11/11 01:10:43;;;;;;;20.52;7.47;;;11.90;99.90;;;;;;5127365;27;20038;-75
2022/11/11 01:13:15;;;;;;;20.65;7.65;;;11.80;99.90;;;;;;5145754;27;20645;-74
2022/11/11 01:15:43;;;;;;;13.38;7.18;;;11.90;99.90;;;;;;5141503;27;20041;-74
2022/11/11 01:18:12;;;;;;;16.35;7.60;;;11.80;99.90;;;;;;5137435;27;20035;-74
2022/11/11 01:20:38;;;;;;;16.60;7.90;;;11.90;99.90;;;;;;5103990;27;20179;-74
2022/11/11 01:23:05;;;;;;;16.38;8.65;;;11.80;99.90;;;;;;5130546;27;20054;-74
2022/11/11 01:25:35;;;;;;;20.42;8.05;;;11.80;99.90;;;;;;5104086;27;20042;-74
2022/11/11 01:28:02;;;;;;;17.05;8.15;;;11.80;99.90;;;;;;5141924;27;20039;-74
2022/11/11 01:30:28;;;;;;;18.73;8.35;;;11.80;99.90;;;;;;5118284;27;20395;-74
2022/11/11 01:32:53;;;;;;;21.13;8.18;;;11.80;99.90;;;;;;5103719;27;20138;-74
2022/11/11 01:35:19;;;;;;;16.17;7.95;;;11.80;99.90;;;;;;5136002;27;20087;-74
2022/11/11 01:37:45;;;;;;;18.67;8.50;;;11.80;99.90;;;;;;5116641;27;20059;-73
2022/11/11 01:40:11;;;;;;;19.63;8.38;;;11.80;99.90;;;;;;5121352;27;20107;-73
2022/11/11 01:43:07;;;;;;;22.88;8.25;;;11.80;99.90;;;;;;5136265;27;20066;-73
2022/11/11 01:45:47;;;;;;;19.90;8.35;;;11.80;99.90;;;;;;5107778;27;20039;-74
2022/11/11 01:51:42;;;;;;;19.95;8.60;;;11.80;99.90;;;;;;5133749;27;20114;-74
2022/11/11 01:54:34;;;;;;;18.58;7.88;;;11.80;99.90;;;;;;5120923;27;20043;-74
2022/11/11 01:57:15;;;;;;;17.02;7.50;;;11.80;99.90;;;;;;5114662;27;20062;-73
2022/11/11 01:59:45;;;;;;;19.42;7.63;;;11.80;99.90;;;;;;5093353;27;20043;-73
2022/11/11 02:02:45;;;;;;;18.05;8.63;;;11.80;99.90;;;;;;5142556;27;20074;-74
2022/11/11 02:08:03;;;;;;;18.60;7.63;;;11.80;99.90;;;;;;5122608;27;20190;-74
2022/11/11 02:10:31;;;;;;;20.00;8.85;;;11.80;99.90;;;;;;5123856;27;20039;-74
2022/11/11 02:15:41;;;;;;;20.42;8.68;;;11.80;99.90;;;;;;5119810;27;20049;-74
2022/11/11 02:18:07;;;;;;;15.45;8.50;;;11.80;99.90;;;;;;5141007;27;20050;-73
2022/11/11 02:20:39;;;;;;;15.90;8.43;;;11.80;99.90;;;;;;5117178;27;20043;-73
2022/11/11 02:23:30;;;;;;;15.35;8.40;;;11.80;99.90;;;;;;5117317;27;20126;-74
2022/11/11 02:25:56;;;;;;;20.08;7.82;;;11.80;99.90;;;;;;5095050;27;20456;-74
2022/11/11 02:28:24;;;;;;;20.88;9.32;;;11.80;99.90;;;;;;5139194;27;20530;-74
2022/11/11 02:30:50;;;;;;;21.40;9.15;;;11.80;99.90;;;;;;5130837;27;20044;-74
2022/11/11 02:33:16;;;;;;;22.20;9.57;;;11.80;99.90;;;;;;5100178;27;20045;-74
2022/11/11 02:35:45;;;;;;;19.48;9.68;;;12.10;99.90;;;;;;5119967;27;20042;-74
2022/11/11 02:38:11;;;;;;;16.20;8.75;;;11.80;99.90;;;;;;5098532;27;20050;-74
2022/11/11 02:41:55;;;;;;;17.50;9.32;;;11.80;99.90;;;;;;5140015;27;20508;-73
2022/11/11 02:43:29;;;;;;;21.80;9.68;;;11.80;99.90;;;;;;5133366;27;20461;-73
2022/11/11 02:45:55;;;;;;;17.10;10.07;;;11.80;99.90;;;;;;5101962;27;20086;-73
2022/11/11 02:48:22;;;;;;;23.63;10.68;;;11.80;99.90;;;;;;5134041;27;20471;-74
2022/11/11 02:50:48;;;;;;;20.50;11.07;;;11.70;99.90;;;;;;5093164;27;20038;-74
2022/11/11 02:53:13;;;;;;;19.20;10.80;;;11.70;99.90;;;;;;5097730;27;20495;-74
2022/11/11 02:55:39;;;;;;;18.63;11.80;;;11.70;99.90;;;;;;5101257;27;20038;-74
2022/11/11 02:58:05;;;;;;;22.95;11.35;;;12.00;99.90;;;;;;5135358;27;20043;-74
2022/11/11 03:00:31;;;;;;;23.20;11.68;;;11.70;99.90;;;;;;5116133;27;20061;-74
2022/11/11 03:02:56;;;;;;;22.98;13.43;;;11.70;99.90;;;;;;5144077;27;21289;-74
2022/11/11 03:05:22;;;;;;;25.05;11.57;;;11.60;99.90;;;;;;5138213;27;20063;-74
2022/11/11 03:07:48;;;;;;;27.13;12.07;;;11.60;99.90;;;;;;5132001;27;20514;-73
2022/11/11 03:10:14;;;;;;;24.83;12.23;;;11.60;99.90;;;;;;5120288;27;20130;-74
2022/11/11 03:12:40;;;;;;;23.20;13.40;;;11.40;99.90;;;;;;5119458;27;20392;-73
2022/11/11 03:15:06;;;;;;;24.52;12.27;;;11.60;99.90;;;;;;5125136;27;20049;-74
2022/11/11 03:17:40;;;;;;;24.25;12.70;;;11.50;99.90;;;;;;5138516;27;20115;-74
2022/11/11 03:23:10;;;;;;;27.92;14.90;;;11.50;99.90;;;;;;5129981;27;20519;-74
2022/11/11 03:25:39;;;;;;;24.33;13.98;;;11.50;99.90;;;;;;5109822;27;20084;-74
2022/11/11 03:28:10;;;;;;;25.00;14.45;;;11.50;99.90;;;;;;5112120;27;20055;-74
2022/11/11 03:30:38;;;;;;;27.52;15.00;;;11.50;99.90;;;;;;5112572;27;20711;-74
2022/11/11 03:33:04;;;;;;;27.80;14.52;;;11.40;99.90;;;;;;5122489;27;20057;-74
2022/11/11 03:35:30;;;;;;;22.40;14.20;;;11.50;99.90;;;;;;5119690;27;20042;-74
2022/11/11 03:40:42;;;;;;;26.23;15.23;;;11.40;99.90;;;;;;5115579;27;20463;-73
2022/11/11 03:43:08;;;;;;;23.52;13.93;;;11.40;99.90;;;;;;5122287;27;20077;-74
2022/11/11 03:45:33;;;;;;;27.20;15.70;;;11.40;99.90;;;;;;5105997;27;20062;-74
2022/11/11 03:47:59;;;;;;;26.70;15.32;;;11.40;99.90;;;;;;5123337;27;20054;-73
2022/11/11 03:50:25;;;;;;;27.08;15.55;;;11.70;99.90;;;;;;5118754;27;20047;-74
2022/11/11 03:52:50;;;;;;;23.88;15.02;;;11.40;99.90;;;;;;5138633;27;20064;-74
2022/11/11 03:55:16;;;;;;;25.45;15.70;;;11.40;99.90;;;;;;5134428;27;20038;-74
2022/11/11 03:57:45;;;;;;;28.48;15.68;;;11.40;99.90;;;;;;5114015;27;20093;-74
2022/11/11 04:00:13;;;;;;;29.85;16.33;;;11.30;99.90;;;;;;5132903;27;20070;-75
2022/11/11 04:11:05;;;;;;;28.52;17.10;;;11.30;99.90;;;;;;5113924;27;20372;-74
2022/11/11 04:16:16;;;;;;;31.08;18.77;;;11.30;99.90;;;;;;5119541;27;20093;-74
2022/11/11 04:21:42;;;;;;;29.65;17.33;;;11.30;99.90;;;;;;5139425;27;20123;-74
2022/11/11 04:26:55;;;;;;;30.45;17.23;;;11.30;99.90;;;;;;5118982;27;20047;-74
2022/11/11 04:29:27;;;;;;;31.05;17.95;;;11.20;99.90;;;;;;5099869;27;20568;-74
2022/11/11 04:34:43;;;;;;;31.27;18.52;;;11.20;99.90;;;;;;5107628;27;20055;-73
2022/11/11 04:37:09;;;;;;;34.47;18.48;;;11.20;99.90;;;;;;5081151;28;20053;-74
2022/11/11 04:42:19;;;;;;;33.30;18.58;;;11.40;99.90;;;;;;5085304;27;20055;-74
2022/11/11 04:47:30;;;;;;;31.60;18.70;;;11.20;99.90;;;;;;5097687;27;20050;-74
2022/11/11 04:49:56;;;;;;;31.80;19.33;;;11.20;99.90;;;;;;5101402;27;20028;-74
2022/11/11 04:52:30;;;;;;;28.98;19.30;;;11.20;99.90;;;;;;5105773;27;21646;-74
2022/11/11 04:57:44;;;;;;;26.92;18.27;;;11.20;99.90;;;;;;5095695;27;20283;-74
2022/11/11 05:00:12;;;;;;;30.75;18.33;;;11.20;99.90;;;;;;5078141;28;20062;-74
2022/11/11 05:05:23;;;;;;;30.90;19.42;;;11.20;99.90;;;;;;5105239;27;20073;-75
2022/11/11 05:10:33;;;;;;;35.58;19.50;;;11.10;99.90;;;;;;5124306;27;20050;-74
2022/11/11 05:21:19;;;;;;;30.15;20.27;;;11.10;99.90;;;;;;5109437;27;20112;-74
2022/11/11 05:26:30;;;;;;;32.75;19.35;;;11.20;99.90;;;;;;5106924;27;20108;-74
2022/11/11 05:28:56;;;;;;;34.10;20.75;;;11.00;99.90;;;;;;5119062;27;20441;-75
2022/11/11 05:31:21;;;;;;;33.72;19.42;;;11.00;99.90;;;;;;5117626;27;20043;-74
2022/11/11 05:33:47;;;;;;;28.92;20.30;;;11.10;99.90;;;;;;5113743;27;20092;-75
2022/11/11 05:36:13;;;;;;;30.48;19.35;;;11.00;99.90;;;;;;5085784;27;20066;-75
2022/11/11 05:38:38;;;;;;;33.75;20.83;;;11.00;99.90;;;;;;5098542;27;20048;-75
2022/11/11 05:41:08;;;;;;;32.90;20.77;;;11.00;99.90;;;;;;5085063;27;20233;-74
2022/11/11 05:43:33;;;;;;;35.40;20.60;;;11.00;99.90;;;;;;5102632;27;20381;-74
2022/11/11 05:45:59;;;;;;;33.53;20.30;;;11.00;99.90;;;;;;5101452;27;20108;-74
2022/11/11 05:48:25;;;;;;;34.10;20.85;;;10.90;99.90;;;;;;5106113;27;20514;-74
2022/11/11 05:50:50;;;;;;;32.22;20.60;;;10.90;99.90;;;;;;5105627;27;20043;-74
2022/11/11 05:53:22;;;;;;;31.23;19.60;;;10.90;99.90;;;;;;5101462;27;20040;-74
2022/11/11 05:55:51;;;;;;;31.45;19.77;;;10.90;99.90;;;;;;5128609;27;20498;-74
2022/11/11 05:58:18;;;;;;;32.50;20.85;;;10.80;99.90;;;;;;5096993;28;20043;-74
2022/11/11 06:00:43;;;;;;;33.65;19.80;;;10.80;99.90;;;;;;5100431;28;20036;-74
2022/11/11 06:03:10;;;;;;;34.05;19.98;;;10.80;99.90;;;;;;5077811;27;20040;-74
2022/11/11 06:05:36;;;;;;;34.50;19.67;;;10.80;99.90;;;;;;5098592;27;20036;-74
2022/11/11 06:08:02;;;;;;;33.83;20.35;;;10.70;99.90;;;;;;5081748;28;20048;-73
2022/11/11 06:10:31;;;;;;;34.10;21.02;;;10.80;99.90;;;;;;5082964;28;20036;-75
2022/11/11 06:13:09;;;;;;;32.97;20.55;;;10.80;99.90;;;;;;5061673;28;20569;-74
2022/11/11 06:15:39;;;;;;;32.25;19.17;;;10.80;99.90;;;;;;5075196;28;20082;-75
2022/11/11 06:18:06;;;;;;;34.00;19.13;;;10.80;99.90;;;;;;5082245;28;20793;-74
2022/11/11 06:20:34;;;;;;;38.38;19.98;;;10.70;99.90;;;;;;5098761;27;20054;-74
2022/11/11 06:23:00;;;;;;;38.85;19.33;;;10.90;99.90;;;;;;5090292;28;20773;-75
2022/11/11 06:28:14;;;;;;;30.88;20.17;;;10.90;99.90;;;;;;5112291;27;20054;-75
2022/11/11 06:30:40;;;;;;;34.90;20.50;;;11.00;99.90;;;;;;5119016;27;20059;-75
2022/11/11 06:33:06;;;;;;;35.35;21.73;;;11.00;99.90;;;;;;5087208;27;20763;-76
2022/11/11 06:35:34;;;;;;;33.05;20.92;;;11.00;99.90;;;;;;5086237;27;20047;-75
2022/11/11 06:38:00;;;;;;;40.67;20.70;;;10.90;99.90;;;;;;5079726;27;20035;-75
2022/11/11 06:40:27;;;;;;;36.33;21.08;;;11.00;99.90;;;;;;5090233;27;20043;-75
2022/11/11 06:42:53;;;;;;;35.95;21.55;;;11.10;99.90;;;;;;5081981;27;20075;-75
2022/11/11 06:45:19;;;;;;;31.63;20.58;;;11.20;99.90;;;;;;5094058;27;20039;-73
2022/11/11 06:47:44;;;;;;;39.35;22.00;;;11.00;99.90;;;;;;5099507;27;20046;-74
2022/11/11 06:50:10;;;;;;;38.05;20.60;;;11.00;99.90;;;;;;5121676;27;20753;-74
2022/11/11 06:52:36;;;;;;;42.22;22.00;;;11.10;99.90;;;;;;5103262;27;20038;-74
2022/11/11 06:55:02;;;;;;;37.08;22.58;;;11.10;99.90;;;;;;5098837;27;20035;-74
2022/11/11 06:57:27;;;;;;;36.53;21.40;;;11.00;99.90;;;;;;5083423;27;20548;-74
2022/11/11 06:59:53;;;;;;;34.53;21.40;;;11.10;99.90;;;;;;5123268;27;20073;-74
2022/11/11 07:02:19;;;;;;;40.50;22.08;;;11.10;99.90;;;;;;5120449;27;20052;-74
2022/11/11 07:04:44;;;;;;;36.15;22.10;;;11.10;99.90;;;;;;5100791;27;20054;-75
2022/11/11 07:07:10;;;;;;;33.53;21.90;;;11.10;99.90;;;;;;5121655;27;20066;-73
2022/11/11 07:09:36;;;;;;;31.88;20.75;;;11.20;99.90;;;;;;5123924;27;20037;-74
2022/11/11 07:12:01;;;;;;;34.78;22.17;;;11.10;99.90;;;;;;5107682;27;20035;-74
2022/11/11 07:14:27;;;;;;;40.97;23.23;;;11.10;99.90;;;;;;5091518;27;20042;-74
2022/11/11 07:16:53;;;;;;;35.53;21.27;;;11.10;99.90;;;;;;5102201;27;20046;-75
2022/11/11 07:19:18;;;;;;;35.75;22.38;;;11.10;99.90;;;;;;5118834;27;20662;-74
2022/11/11 07:21:44;;;;;;;34.90;22.40;;;11.10;99.90;;;;;;5105660;27;20528;-73
2022/11/11 07:24:10;;;;;;;38.00;22.30;;;11.10;99.90;;;;;;5107584;27;20074;-74
2022/11/11 07:26:36;;;;;;;35.33;23.00;;;11.10;99.90;;;;;;5123965;27;20535;-74
2022/11/11 07:29:01;;;;;;;32.72;22.80;;;11.10;99.90;;;;;;5106532;27;20134;-75
2022/11/11 07:31:27;;;;;;;39.75;22.27;;;11.10;99.90;;;;;;5104710;27;20051;-75
2022/11/11 07:33:53;;;;;;;39.40;23.05;;;11.20;99.90;;;;;;5102633;27;20050;-74
2022/11/11 07:36:18;;;;;;;35.13;22.02;;;11.10;99.90;;;;;;5099556;27;20366;-74
2022/11/11 07:38:44;;;;;;;39.83;21.80;;;11.10;99.90;;;;;;5102808;27;20702;-74
2022/11/11 07:41:10;;;;;;;40.05;23.35;;;11.10;99.90;;;;;;5107534;27;20451;-73
2022/11/11 07:43:36;;;;;;;38.13;22.88;;;11.10;99.90;;;;;;5104240;27;20493;-73
2022/11/11 07:46:02;;;;;;;36.53;20.80;;;11.10;99.90;;;;;;5105720;27;20066;-74
2022/11/11 07:48:27;;;;;;;36.60;22.52;;;11.10;99.90;;;;;;5101768;27;20050;-73
2022/11/11 07:50:53;;;;;;;35.25;21.30;;;11.10;99.90;;;;;;5084537;27;20047;-74
2022/11/11 07:53:19;;;;;;;38.15;22.23;;;11.10;99.90;;;;;;5086923;27;20517;-74
2022/11/11 07:55:45;;;;;;;36.85;21.60;;;11.10;99.90;;;;;;5122076;27;20099;-74
2022/11/11 07:58:11;;;;;;;34.58;21.85;;;11.10;99.90;;;;;;5100852;27;20043;-74
2022/11/11 08:00:37;;;;;;;33.83;22.73;;;11.10;99.90;;;;;;5087065;27;20070;-74
2022/11/11 08:03:03;;;;;;;34.15;21.88;;;11.40;99.90;;;;;;5113515;27;20043;-74
2022/11/11 08:05:29;;;;;;;35.05;21.60;;;11.10;99.90;;;;;;5101043;27;20600;-74
2022/11/11 08:07:55;;;;;;;36.03;22.10;;;11.10;99.90;;;;;;5103308;27;20070;-74
2022/11/11 08:10:20;;;;;;;36.45;21.70;;;11.10;99.90;;;;;;5104704;27;21357;-74
2022/11/11 08:15:36;;;;;;;33.67;20.70;;;11.20;99.90;;;;;;5117979;27;21319;-74
2022/11/11 08:18:02;;;;;;;34.30;21.63;;;11.20;99.90;;;;;;5120465;27;20043;-73
2022/11/11 08:20:28;;;;;;;36.88;22.27;;;11.20;99.90;;;;;;5086251;27;20039;-74
2022/11/11 08:22:56;;;;;;;36.08;21.85;;;11.20;99.90;;;;;;5104758;27;20046;-72
2022/11/11 08:25:23;;;;;;;33.00;21.27;;;11.20;99.90;;;;;;5103124;27;20118;-73
2022/11/11 08:27:48;;;;;;;33.30;20.95;;;11.10;99.90;;;;;;5107460;27;20058;-73
2022/11/11 08:30:14;;;;;;;35.22;21.92;;;11.20;99.90;;;;;;5104525;27;20559;-73
2022/11/11 08:32:40;;;;;;;36.00;22.00;;;11.20;99.90;;;;;;5087636;27;20495;-73
2022/11/11 08:35:06;;;;;;;33.58;21.77;;;11.20;99.90;;;;;;5084610;27;20119;-73
2022/11/11 08:37:33;;;;;;;36.40;22.17;;;11.20;99.90;;;;;;5089853;27;20043;-73
2022/11/11 08:39:58;;;;;;;42.22;22.60;;;11.20;99.90;;;;;;5088713;27;20131;-74
2022/11/11 08:42:24;;;;;;;38.50;21.58;;;11.20;99.90;;;;;;5121801;27;20126;-72
2022/11/11 08:44:50;;;;;;;35.55;20.58;;;11.20;99.90;;;;;;5117312;27;20036;-73
2022/11/11 08:47:16;;;;;;;37.40;21.73;;;11.20;99.90;;;;;;5116407;27;20039;-73
2022/11/11 08:49:42;;;;;;;37.97;22.17;;;11.20;99.90;;;;;;5103638;27;20050;-73
2022/11/11 08:52:08;;;;;;;36.28;21.38;;;11.20;99.90;;;;;;5103458;27;20066;-72
2022/11/11 08:54:34;;;;;;;30.90;21.98;;;11.20;99.90;;;;;;5083780;27;20609;-73
2022/11/11 08:56:59;;;;;;;33.83;20.95;;;11.20;99.90;;;;;;5099883;27;20046;-73
2022/11/11 08:59:25;;;;;;;33.97;22.58;;;11.20;99.90;;;;;;5104652;27;20385;-73
2022/11/11 09:01:51;;;;;;;31.98;21.30;;;11.20;99.90;;;;;;5124301;27;20038;-73
2022/11/11 09:04:17;;;;;;;34.10;21.17;;;11.20;99.90;;;;;;5085059;27;20712;-72
2022/11/11 09:06:44;;;;;;;35.55;21.92;;;11.20;99.90;;;;;;5106002;27;20054;-72
2022/11/11 09:09:10;;;;;;;31.67;20.85;;;11.10;99.90;;;;;;5105892;27;20114;-73
2022/11/11 09:11:36;;;;;;;31.50;21.58;;;11.10;99.90;;;;;;5106270;27;20458;-76
2022/11/11 09:14:02;;;;;;;30.35;20.33;;;11.20;99.90;;;;;;5105841;27;20035;-75
2022/11/11 09:16:27;;;;;;;31.88;21.02;;;11.40;99.90;;;;;;5106681;27;20453;-75
2022/11/11 09:18:53;;;;;;;31.75;21.30;;;11.20;99.90;;;;;;5105434;27;20410;-74
2022/11/11 09:21:19;;;;;;;35.47;20.73;;;11.20;99.90;;;;;;5100458;27;20168;-74
2022/11/11 09:23:44;;;;;;;37.53;22.10;;;11.20;99.90;;;;;;5122351;27;20043;-75
2022/11/11 09:26:10;;;;;;;33.10;20.67;;;11.20;99.90;;;;;;5106328;27;20199;-75
2022/11/11 09:28:36;;;;;;;32.45;20.17;;;11.20;99.90;;;;;;5090385;27;20043;-74
2022/11/11 09:31:02;;;;;;;35.15;20.13;;;11.20;99.90;;;;;;5089299;27;20073;-72
2022/11/11 09:33:28;;;;;;;38.50;21.50;;;11.20;99.90;;;;;;5123348;27;20042;-71
2022/11/11 09:35:56;;;;;;;36.08;21.20;;;11.20;99.90;;;;;;5104375;27;20046;-72
2022/11/11 09:38:22;;;;;;;35.42;22.50;;;11.40;99.90;;;;;;5104605;27;20063;-73
2022/11/11 09:41:15;;;;;;;33.53;21.00;;;11.10;99.90;;;;;;5089008;27;20647;-73
2022/11/11 09:43:54;;;;;;;32.17;20.13;;;11.10;99.90;;;;;;5107644;27;20134;-73
2022/11/11 09:46:45;;;;;;;34.40;20.55;;;11.10;99.90;;;;;;5105467;27;20106;-73
2022/11/11 09:49:23;;;;;;;35.58;19.90;;;11.10;99.90;;;;;;5123483;27;20058;-74
2022/11/11 09:52:04;;;;;;;27.77;20.08;;;11.10;99.90;;;;;;5103584;27;20055;-73
2022/11/11 09:54:39;;;;;;;34.20;21.33;;;11.10;99.90;;;;;;5105865;27;20046;-73
2022/11/11 09:57:14;;;;;;;34.83;20.40;;;11.10;99.90;;;;;;5089349;27;20049;-74
2022/11/11 09:59:47;;;;;;;32.72;21.58;;;11.10;99.90;;;;;;5125017;27;20031;-74
2022/11/11 10:02:37;;;;;;;34.15;21.10;;;11.30;99.90;;;;;;5102578;27;20436;-73
2022/11/11 10:05:08;;;;;;;35.75;20.42;;;11.10;99.90;;;;;;5086428;27;20099;-74
2022/11/11 10:07:47;;;;;;;35.28;20.83;;;11.10;99.90;;;;;;5104656;28;20145;-74
2022/11/11 10:10:37;;;;;;;33.90;20.15;;;11.10;99.90;;;;;;5085252;27;20039;-74
2022/11/11 10:13:12;;;;;;;33.73;20.93;;;11.10;99.90;;;;;;5085100;27;20082;-74
2022/11/11 10:16:00;;;;;;;33.22;20.08;;;11.10;99.90;;;;;;5103573;27;20338;-74
2022/11/11 10:18:55;;;;;;;31.70;19.85;;;11.10;99.90;;;;;;5090551;28;20051;-74
2022/11/11 10:21:47;;;;;;;30.02;19.65;;;11.10;99.90;;;;;;5103629;27;20039;-73
2022/11/11 10:24:15;;;;;;;;;;;11.10;99.90;;;;;;5104985;28;20035;-74
2022/11/11 10:26:44;;;;;;;35.03;20.25;;;11.50;99.90;;;;;;5102896;28;19919;-75
2022/11/11 10:29:18;;;;;;;32.20;20.08;;;11.10;99.90;;;;;;5102392;28;20051;-74
2022/11/11 10:32:01;;;;;;;32.25;20.52;;;11.30;99.90;;;;;;5103055;28;20062;-74
2022/11/11 10:34:32;;;;;;;36.00;21.73;;;11.10;99.90;;;;;;5097531;28;20211;-74
2022/11/11 10:36:59;;;;;;;34.97;19.73;;;11.10;99.90;;;;;;5101844;28;20126;-73
2022/11/11 10:39:43;;;;;;;35.15;19.80;;;11.50;99.90;;;;;;5102798;28;20434;-74
2022/11/11 10:42:18;;;;;;;29.00;19.98;;;11.20;99.90;;;;;;5102155;28;20482;-74
2022/11/11 10:44:44;;;;;;;27.23;18.80;;;11.20;99.90;;;;;;5099931;28;20079;-74
2022/11/11 10:47:31;;;;;;;28.15;19.05;;;11.20;99.90;;;;;;5101813;28;20035;-74
2022/11/11 10:50:16;;;;;;;27.75;18.65;;;11.20;99.90;;;;;;5117121;28;20039;-75
2022/11/11 10:53:12;;;;;;;35.05;18.40;;;11.20;99.90;;;;;;5084975;28;20492;-74
2022/11/11 10:55:50;;;;;;;29.55;18.45;;;11.20;99.90;;;;;;5102844;28;20450;-73
2022/11/11 10:58:37;;;;;;;28.63;18.65;;;11.20;99.90;;;;;;5099318;28;20502;-73
2022/11/11 11:01:06;;;;;;;28.25;17.23;;;11.20;99.90;;;;;;5099807;28;20047;-74
2022/11/11 11:03:36;;;;;;;31.25;19.20;;;11.20;99.90;;;;;;5082066;28;20103;-73
2022/11/11 11:06:05;;;;;;;27.98;18.98;;;11.20;99.90;;;;;;5084181;28;20524;-73
2022/11/11 11:08:51;;;;;;;30.10;18.38;;;11.30;99.90;;;;;;5084262;28;20040;-73
2022/11/11 11:11:36;;;;;;;27.05;17.83;;;11.30;99.90;;;;;;5100407;28;20036;-73
2022/11/11 11:14:09;;;;;;;27.00;17.25;;;11.30;99.90;;;;;;5135510;27;20039;-73
2022/11/11 11:16:43;;;;;;;27.38;17.05;;;11.30;99.90;;;;;;5082930;28;20042;-73
2022/11/11 11:19:18;;;;;;;29.25;17.80;;;11.20;99.90;;;;;;5078155;28;20164;-74
2022/11/11 11:21:57;;;;;;;26.30;16.98;;;11.30;99.90;;;;;;5081455;28;20132;-72
2022/11/11 11:24:28;;;;;;;24.52;16.13;;;11.30;99.90;;;;;;5085458;28;20519;-72
2022/11/11 11:26:57;;;;;;;26.20;16.42;;;11.30;99.90;;;;;;5120320;27;20054;-73
2022/11/11 11:29:34;;;;;;;28.65;16.92;;;11.30;99.90;;;;;;5108342;27;20043;-73
2022/11/11 11:32:12;;;;;;;27.23;15.98;;;11.30;99.90;;;;;;5107427;27;20031;-73
2022/11/11 11:34:52;;;;;;;23.65;16.70;;;11.30;99.90;;;;;;5104901;27;20051;-73
2022/11/11 11:37:20;;;;;;;29.08;17.30;;;11.30;99.90;;;;;;5124502;27;20501;-72
2022/11/11 11:39:47;;;;;;;22.50;15.15;;;11.30;99.90;;;;;;5109460;27;20051;-73
2022/11/11 11:42:32;;;;;;;25.45;17.55;;;11.30;99.90;;;;;;5106125;27;20039;-73
2022/11/11 11:45:21;;;;;;;25.48;16.70;;;11.40;99.90;;;;;;5107180;27;20039;-73
2022/11/11 11:48:24;;;;;;;26.05;16.65;;;11.30;99.90;;;;;;5106298;27;20049;-73
2022/11/11 11:51:03;;;;;;;25.10;16.08;;;11.40;99.90;;;;;;5104205;27;20100;-74
2022/11/11 11:53:47;;;;;;;27.90;16.35;;;11.40;99.90;;;;;;5124357;27;20389;-74
2022/11/11 11:56:40;;;;;;;24.50;15.82;;;11.40;99.90;;;;;;5110870;27;22287;-74
2022/11/11 11:59:16;;;;;;;22.15;15.30;;;11.40;99.90;;;;;;5109223;27;20035;-74
2022/11/11 12:01:53;;;;;;;23.10;15.70;;;11.40;99.90;;;;;;5108593;27;20137;-74
2022/11/11 12:04:31;;;;;;;28.67;16.92;;;11.40;99.90;;;;;;5092225;27;20043;-74
2022/11/11 12:07:12;;;;;;;22.92;15.25;;;11.40;99.90;;;;;;5096448;27;20041;-74
2022/11/11 12:09:56;;;;;;;21.73;13.52;;;11.40;99.90;;;;;;5118386;27;20190;-73
2022/11/11 12:12:22;;;;;;;24.83;15.00;;;11.50;99.90;;;;;;5112424;27;20035;-72
2022/11/11 12:14:52;;;;;;;22.95;16.05;;;11.40;99.90;;;;;;5091227;27;20053;-73
2022/11/11 12:17:28;;;;;;;25.60;14.98;;;11.40;99.90;;;;;;5126643;27;20035;-74
2022/11/11 12:20:12;;;;;;;23.50;15.02;;;11.70;99.90;;;;;;5105820;27;20058;-73
2022/11/11 12:23:00;;;;;;;22.08;15.30;;;11.40;99.90;;;;;;5108127;27;20036;-73
2022/11/11 12:25:36;;;;;;;21.95;14.75;;;11.40;99.90;;;;;;5108055;27;20035;-74
2022/11/11 12:28:30;;;;;;;24.05;15.40;;;11.40;99.90;;;;;;5106739;27;20416;-73
2022/11/11 12:31:13;;;;;;;20.58;14.45;;;11.40;99.90;;;;;;5090645;27;20536;-73
2022/11/11 12:34:08;;;;;;;22.92;14.15;;;11.40;99.90;;;;;;5107668;27;20046;-73
2022/11/11 12:36:55;;;;;;;24.40;14.82;;;11.40;99.90;;;;;;5124286;27;20039;-74
2022/11/11 12:39:52;;;;;;;21.85;14.32;;;11.40;99.90;;;;;;5088208;27;20035;-74
2022/11/11 12:42:45;;;;;;;20.17;13.82;;;11.40;99.90;;;;;;5136979;27;20039;-73
2022/11/11 12:45:20;;;;;;;24.75;15.48;;;11.40;99.90;;;;;;5128946;27;20415;-74
2022/11/11 12:48:04;;;;;;;22.90;14.18;;;11.40;99.90;;;;;;5126629;27;20035;-73
2022/11/11 12:50:36;;;;;;;23.25;13.32;;;11.40;99.90;;;;;;5107317;27;20448;-74
2022/11/11 12:53:23;;;;;;;25.70;13.80;;;11.40;99.90;;;;;;5108873;27;20039;-74
2022/11/11 12:55:52;;;;;;;21.88;13.65;;;11.40;99.90;;;;;;5109432;27;20605;-74
2022/11/11 12:58:33;;;;;;;20.23;14.32;;;11.40;99.90;;;;;;5110920;27;20040;-74
2022/11/11 13:01:28;;;;;;;22.65;14.45;;;11.40;99.90;;;;;;5095050;27;20039;-74
2022/11/11 13:04:29;;;;;;;25.75;15.20;;;11.40;99.90;;;;;;5091618;27;20054;-74
2022/11/11 13:07:04;;;;;;;26.27;16.27;;;11.30;99.90;;;;;;5106701;27;20187;-74
2022/11/11 13:09:42;;;;;;;24.08;15.02;;;11.40;99.90;;;;;;5110394;27;20303;-74
2022/11/11 13:12:07;;;;;;;25.63;16.42;;;11.70;99.90;;;;;;5125145;27;20039;-74
2022/11/11 13:14:50;;;;;;;24.50;16.45;;;11.30;99.90;;;;;;5127895;27;20101;-73
2022/11/11 13:17:16;;;;;;;26.50;16.65;;;11.30;99.90;;;;;;5109192;27;20039;-74
2022/11/11 13:19:51;;;;;;;24.95;16.20;;;11.30;99.90;;;;;;5109636;27;20042;-74
2022/11/11 13:22:20;;;;;;;25.00;15.70;;;11.20;99.90;;;;;;5108651;27;20061;-73
2022/11/11 13:24:48;;;;;;;24.92;16.58;;;11.20;99.90;;;;;;5110428;27;20046;-73
2022/11/11 13:27:27;;;;;;;24.60;15.82;;;11.20;99.90;;;;;;5127473;27;20059;-74
2022/11/11 13:30:05;;;;;;;26.17;18.35;;;11.20;99.90;;;;;;5105936;27;20046;-73
2022/11/11 13:32:49;;;;;;;27.55;16.70;;;11.20;99.90;;;;;;5095447;27;20039;-74
2022/11/11 13:35:35;;;;;;;25.33;16.50;;;11.20;99.90;;;;;;5123670;27;20123;-73
2022/11/11 13:38:02;;;;;;;26.15;16.90;;;11.20;99.90;;;;;;5110274;27;20176;-74
2022/11/11 13:40:40;;;;;;;24.25;16.75;;;11.20;99.90;;;;;;5109721;27;20043;-73
2022/11/11 13:43:40;;;;;;;24.90;17.25;;;11.20;99.90;;;;;;5126282;27;20038;-73
2022/11/11 13:46:34;;;;;;;24.85;17.15;;;11.20;99.90;;;;;;5105482;27;20496;-74
2022/11/11 13:49:04;;;;;;;26.25;16.33;;;11.20;99.90;;;;;;5133958;27;20609;-74
2022/11/11 13:51:41;;;;;;;28.88;17.45;;;11.20;99.90;;;;;;5109424;27;20158;-73
2022/11/11 13:54:36;;;;;;;26.02;16.85;;;11.30;99.90;;;;;;5127390;27;20047;-74
2022/11/11 13:57:13;;;;;;;28.80;17.85;;;11.20;99.90;;;;;;5093865;27;20422;-74
2022/11/11 13:59:42;;;;;;;31.15;18.13;;;11.30;99.90;;;;;;5127396;27;20038;-73
2022/11/11 14:02:17;;;;;;;27.88;18.17;;;11.40;99.90;;;;;;5123128;27;20066;-74
2022/11/11 14:05:05;;;;;;;27.83;17.42;;;11.30;99.90;;;;;;5091973;27;20051;-73
2022/11/11 14:07:42;;;;;;;24.27;16.23;;;11.30;99.90;;;;;;5105676;28;20120;-73
2022/11/11 14:10:09;;;;;;;28.92;18.05;;;11.30;99.90;;;;;;5130040;27;20504;-73